Victor, Idaho
Current Conditions -  °F | °C
As of 12:56 AM on Friday 24 Oct 2014 (Local Time) from KDIJ Reporting Station
Overcast Overcast  
Wind Chill: 45°   Ceiling: 9500
Heat Index: 48°   Visibility: 10mi
Dew Point: 30°   Wind: 7mph
Humidity: 50%   Direction: 170°S
Pressure: 30.19"   Gusts: NA
Location:  43.6°N, 111.11°W
Report Text: KDIJ 240656Z AUTO 17006KT 10SM OVC095 09/M01 A3019 RMK AO2 T00881011 SLP169
Loading
Personal Weather Stations






























Interactive Weather Map
Tropical Storm Tracking
New forecast layout! Learn more

10-Day Weather Forecast

Advertisements
Track Severe Weather on mobile